sensor_id;sensor_type;location;lat;lon;timestamp;P1;durP1;ratioP1;P2;durP2;ratioP2
20397;SDS011;10358;49.590;11.030;2023-02-15T00:01:43;20.77;;;10.00;;
20397;SDS011;10358;49.590;11.030;2023-02-15T00:04:11;17.53;;;9.03;;
20397;SDS011;10358;49.590;11.030;2023-02-15T00:06:38;17.13;;;9.27;;
20397;SDS011;10358;49.590;11.030;2023-02-15T00:09:03;16.50;;;9.67;;
20397;SDS011;10358;49.590;11.030;2023-02-15T00:11:29;17.20;;;9.27;;
20397;SDS011;10358;49.590;11.030;2023-02-15T00:14:30;19.90;;;10.00;;
20397;SDS011;10358;49.590;11.030;2023-02-15T00:16:55;19.50;;;10.13;;
20397;SDS011;10358;49.590;11.030;2023-02-15T00:19:24;19.23;;;9.80;;
20397;SDS011;10358;49.590;11.030;2023-02-15T00:21:50;18.23;;;9.97;;
20397;SDS011;10358;49.590;11.030;2023-02-15T00:24:16;21.17;;;9.97;;
20397;SDS011;10358;49.590;11.030;2023-02-15T00:26:43;18.60;;;10.20;;
20397;SDS011;10358;49.590;11.030;2023-02-15T00:29:09;17.93;;;9.57;;
20397;SDS011;10358;49.590;11.030;2023-02-15T00:31:37;17.67;;;9.37;;
20397;SDS011;10358;49.590;11.030;2023-02-15T00:34:13;20.47;;;10.73;;
20397;SDS011;10358;49.590;11.030;2023-02-15T00:36:46;17.17;;;9.53;;
20397;SDS011;10358;49.590;11.030;2023-02-15T00:39:12;17.53;;;9.83;;
20397;SDS011;10358;49.590;11.030;2023-02-15T00:41:39;17.87;;;10.07;;
20397;SDS011;10358;49.590;11.030;2023-02-15T00:44:05;17.83;;;9.83;;
20397;SDS011;10358;49.590;11.030;2023-02-15T00:46:31;20.23;;;9.73;;
20397;SDS011;10358;49.590;11.030;2023-02-15T00:48:57;19.50;;;10.17;;
20397;SDS011;10358;49.590;11.030;2023-02-15T00:51:23;21.43;;;10.10;;
20397;SDS011;10358;49.590;11.030;2023-02-15T00:53:49;19.57;;;9.73;;
20397;SDS011;10358;49.590;11.030;2023-02-15T00:56:15;20.40;;;10.10;;
20397;SDS011;10358;49.590;11.030;2023-02-15T00:58:40;20.17;;;9.83;;
20397;SDS011;10358;49.590;11.030;2023-02-15T01:01:08;16.57;;;9.53;;
20397;SDS011;10358;49.590;11.030;2023-02-15T01:03:38;18.10;;;9.37;;
20397;SDS011;10358;49.590;11.030;2023-02-15T01:06:06;18.83;;;10.37;;
20397;SDS011;10358;49.590;11.030;2023-02-15T01:08:31;18.40;;;9.90;;
20397;SDS011;10358;49.590;11.030;2023-02-15T01:10:59;21.23;;;10.07;;
20397;SDS011;10358;49.590;11.030;2023-02-15T01:13:48;18.00;;;9.63;;
20397;SDS011;10358;49.590;11.030;2023-02-15T01:16:18;20.07;;;10.07;;
20397;SDS011;10358;49.590;11.030;2023-02-15T01:18:45;18.93;;;10.30;;
20397;SDS011;10358;49.590;11.030;2023-02-15T01:21:15;20.13;;;10.37;;
20397;SDS011;10358;49.590;11.030;2023-02-15T01:23:42;21.67;;;10.57;;
20397;SDS011;10358;49.590;11.030;2023-02-15T01:26:09;19.70;;;10.63;;
20397;SDS011;10358;49.590;11.030;2023-02-15T01:28:35;19.90;;;9.87;;
20397;SDS011;10358;49.590;11.030;2023-02-15T01:31:05;19.93;;;9.97;;
20397;SDS011;10358;49.590;11.030;2023-02-15T01:33:35;18.03;;;9.67;;
20397;SDS011;10358;49.590;11.030;2023-02-15T01:36:01;18.30;;;9.60;;
20397;SDS011;10358;49.590;11.030;2023-02-15T01:38:27;18.50;;;10.17;;
20397;SDS011;10358;49.590;11.030;2023-02-15T01:40:53;18.33;;;9.30;;
20397;SDS011;10358;49.590;11.030;2023-02-15T01:43:40;21.03;;;9.97;;
20397;SDS011;10358;49.590;11.030;2023-02-15T01:46:07;18.23;;;9.53;;
20397;SDS011;10358;49.590;11.030;2023-02-15T01:48:43;19.37;;;9.47;;
20397;SDS011;10358;49.590;11.030;2023-02-15T01:51:13;19.43;;;9.87;;
20397;SDS011;10358;49.590;11.030;2023-02-15T01:53:42;17.47;;;9.57;;
20397;SDS011;10358;49.590;11.030;2023-02-15T01:56:17;19.07;;;10.13;;
20397;SDS011;10358;49.590;11.030;2023-02-15T01:58:45;20.10;;;10.80;;
20397;SDS011;10358;49.590;11.030;2023-02-15T02:01:12;17.90;;;10.00;;
20397;SDS011;10358;49.590;11.030;2023-02-15T02:03:59;19.43;;;10.53;;
20397;SDS011;10358;49.590;11.030;2023-02-15T02:06:32;17.40;;;9.80;;
20397;SDS011;10358;49.590;11.030;2023-02-15T02:09:00;17.57;;;8.93;;
20397;SDS011;10358;49.590;11.030;2023-02-15T02:11:26;18.63;;;9.87;;
20397;SDS011;10358;49.590;11.030;2023-02-15T02:13:52;16.83;;;9.90;;
20397;SDS011;10358;49.590;11.030;2023-02-15T02:16:28;18.03;;;9.73;;
20397;SDS011;10358;49.590;11.030;2023-02-15T02:19:10;18.03;;;9.73;;
20397;SDS011;10358;49.590;11.030;2023-02-15T02:22:08;17.37;;;8.77;;
20397;SDS011;10358;49.590;11.030;2023-02-15T02:36:22;18.33;;;9.77;;
20397;SDS011;10358;49.590;11.030;2023-02-15T02:42:05;18.60;;;9.47;;
20397;SDS011;10358;49.590;11.030;2023-02-15T02:47:12;16.73;;;9.63;;
20397;SDS011;10358;49.590;11.030;2023-02-15T02:49:51;17.47;;;9.53;;
20397;SDS011;10358;49.590;11.030;2023-02-15T02:55:05;18.33;;;10.23;;
20397;SDS011;10358;49.590;11.030;2023-02-15T02:57:35;21.07;;;10.30;;
20397;SDS011;10358;49.590;11.030;2023-02-15T03:00:04;16.83;;;9.63;;
20397;SDS011;10358;49.590;11.030;2023-02-15T03:02:34;19.37;;;10.03;;
20397;SDS011;10358;49.590;11.030;2023-02-15T03:05:06;17.33;;;10.00;;
20397;SDS011;10358;49.590;11.030;2023-02-15T03:07:36;18.77;;;10.50;;
20397;SDS011;10358;49.590;11.030;2023-02-15T03:10:04;21.50;;;10.63;;
20397;SDS011;10358;49.590;11.030;2023-02-15T03:12:35;21.63;;;10.73;;
20397;SDS011;10358;49.590;11.030;2023-02-15T03:15:07;21.20;;;10.87;;
20397;SDS011;10358;49.590;11.030;2023-02-15T03:17:55;19.77;;;9.60;;
20397;SDS011;10358;49.590;11.030;2023-02-15T03:20:27;21.37;;;11.17;;
20397;SDS011;10358;49.590;11.030;2023-02-15T03:22:59;19.13;;;9.63;;
20397;SDS011;10358;49.590;11.030;2023-02-15T03:25:32;19.90;;;10.17;;
20397;SDS011;10358;49.590;11.030;2023-02-15T03:28:01;20.07;;;10.63;;
20397;SDS011;10358;49.590;11.030;2023-02-15T03:30:31;21.63;;;10.83;;
20397;SDS011;10358;49.590;11.030;2023-02-15T03:32:59;21.13;;;11.00;;
20397;SDS011;10358;49.590;11.030;2023-02-15T03:35:30;21.73;;;10.67;;
20397;SDS011;10358;49.590;11.030;2023-02-15T03:38:09;22.50;;;11.30;;
20397;SDS011;10358;49.590;11.030;2023-02-15T03:40:38;20.40;;;10.53;;
20397;SDS011;10358;49.590;11.030;2023-02-15T03:43:48;24.07;;;11.70;;
20397;SDS011;10358;49.590;11.030;2023-02-15T03:46:24;23.47;;;11.73;;
20397;SDS011;10358;49.590;11.030;2023-02-15T03:49:06;23.00;;;11.20;;
20397;SDS011;10358;49.590;11.030;2023-02-15T03:51:36;22.70;;;11.67;;
20397;SDS011;10358;49.590;11.030;2023-02-15T03:54:09;19.90;;;10.17;;
20397;SDS011;10358;49.590;11.030;2023-02-15T03:56:59;20.07;;;11.03;;
20397;SDS011;10358;49.590;11.030;2023-02-15T03:59:45;20.33;;;10.87;;
20397;SDS011;10358;49.590;11.030;2023-02-15T04:02:31;21.63;;;11.30;;
20397;SDS011;10358;49.590;11.030;2023-02-15T04:05:04;21.17;;;10.70;;
20397;SDS011;10358;49.590;11.030;2023-02-15T04:07:30;21.87;;;11.43;;
20397;SDS011;10358;49.590;11.030;2023-02-15T04:09:56;22.57;;;11.47;;
20397;SDS011;10358;49.590;11.030;2023-02-15T04:12:40;22.97;;;11.43;;
20397;SDS011;10358;49.590;11.030;2023-02-15T04:15:05;23.07;;;12.03;;
20397;SDS011;10358;49.590;11.030;2023-02-15T04:17:50;22.90;;;11.77;;
20397;SDS011;10358;49.590;11.030;2023-02-15T04:20:15;22.43;;;11.63;;
20397;SDS011;10358;49.590;11.030;2023-02-15T04:23:00;21.87;;;11.07;;
20397;SDS011;10358;49.590;11.030;2023-02-15T04:25:44;25.27;;;11.60;;
20397;SDS011;10358;49.590;11.030;2023-02-15T04:28:09;25.10;;;11.67;;
20397;SDS011;10358;49.590;11.030;2023-02-15T04:30:35;22.87;;;11.53;;
20397;SDS011;10358;49.590;11.030;2023-02-15T04:33:01;24.67;;;12.20;;
20397;SDS011;10358;49.590;11.030;2023-02-15T04:35:26;23.57;;;11.60;;
20397;SDS011;10358;49.590;11.030;2023-02-15T04:37:52;23.87;;;11.93;;
20397;SDS011;10358;49.590;11.030;2023-02-15T04:40:18;26.00;;;12.43;;
20397;SDS011;10358;49.590;11.030;2023-02-15T04:42:43;25.30;;;12.30;;
20397;SDS011;10358;49.590;11.030;2023-02-15T04:45:09;23.27;;;11.67;;
20397;SDS011;10358;49.590;11.030;2023-02-15T04:47:34;22.53;;;11.07;;
20397;SDS011;10358;49.590;11.030;2023-02-15T04:50:00;22.07;;;11.27;;
20397;SDS011;10358;49.590;11.030;2023-02-15T04:52:25;22.67;;;12.00;;
20397;SDS011;10358;49.590;11.030;2023-02-15T04:54:51;23.17;;;11.53;;
20397;SDS011;10358;49.590;11.030;2023-02-15T04:57:16;23.53;;;11.97;;
20397;SDS011;10358;49.590;11.030;2023-02-15T04:59:42;26.23;;;12.33;;
20397;SDS011;10358;49.590;11.030;2023-02-15T05:02:08;23.03;;;11.63;;
20397;SDS011;10358;49.590;11.030;2023-02-15T05:04:33;23.80;;;12.13;;
20397;SDS011;10358;49.590;11.030;2023-02-15T05:06:59;22.53;;;11.57;;
20397;SDS011;10358;49.590;11.030;2023-02-15T05:09:25;28.33;;;13.03;;
20397;SDS011;10358;49.590;11.030;2023-02-15T05:11:50;24.57;;;12.27;;
20397;SDS011;10358;49.590;11.030;2023-02-15T05:14:16;26.40;;;12.83;;
20397;SDS011;10358;49.590;11.030;2023-02-15T05:16:41;26.00;;;12.53;;
20397;SDS011;10358;49.590;11.030;2023-02-15T05:19:07;25.10;;;12.97;;
20397;SDS011;10358;49.590;11.030;2023-02-15T05:21:33;25.33;;;12.70;;
20397;SDS011;10358;49.590;11.030;2023-02-15T05:23:58;25.23;;;13.07;;
20397;SDS011;10358;49.590;11.030;2023-02-15T05:26:24;21.63;;;11.63;;
20397;SDS011;10358;49.590;11.030;2023-02-15T05:29:09;25.77;;;12.03;;
20397;SDS011;10358;49.590;11.030;2023-02-15T05:31:35;26.17;;;12.83;;
20397;SDS011;10358;49.590;11.030;2023-02-15T05:34:01;22.53;;;11.50;;
20397;SDS011;10358;49.590;11.030;2023-02-15T05:36:27;26.43;;;12.83;;
20397;SDS011;10358;49.590;11.030;2023-02-15T05:38:53;25.10;;;11.83;;
20397;SDS011;10358;49.590;11.030;2023-02-15T05:41:19;27.60;;;13.17;;
20397;SDS011;10358;49.590;11.030;2023-02-15T05:43:45;27.60;;;13.43;;
20397;SDS011;10358;49.590;11.030;2023-02-15T05:46:11;24.13;;;12.47;;
20397;SDS011;10358;49.590;11.030;2023-02-15T05:48:37;23.07;;;12.53;;
20397;SDS011;10358;49.590;11.030;2023-02-15T05:51:12;26.97;;;12.67;;
20397;SDS011;10358;49.590;11.030;2023-02-15T05:53:39;27.37;;;12.50;;
20397;SDS011;10358;49.590;11.030;2023-02-15T05:56:06;27.23;;;13.37;;
20397;SDS011;10358;49.590;11.030;2023-02-15T05:58:35;26.57;;;12.87;;
20397;SDS011;10358;49.590;11.030;2023-02-15T06:03:34;21.93;;;11.97;;
20397;SDS011;10358;49.590;11.030;2023-02-15T06:06:00;26.80;;;14.23;;
20397;SDS011;10358;49.590;11.030;2023-02-15T06:08:26;52.37;;;20.37;;
20397;SDS011;10358;49.590;11.030;2023-02-15T06:10:51;45.03;;;18.40;;
20397;SDS011;10358;49.590;11.030;2023-02-15T06:13:17;31.87;;;14.83;;
20397;SDS011;10358;49.590;11.030;2023-02-15T06:15:42;30.10;;;14.20;;
20397;SDS011;10358;49.590;11.030;2023-02-15T06:18:08;26.00;;;13.30;;
20397;SDS011;10358;49.590;11.030;2023-02-15T06:20:33;26.90;;;13.33;;
20397;SDS011;10358;49.590;11.030;2023-02-15T06:22:59;26.17;;;13.43;;
20397;SDS011;10358;49.590;11.030;2023-02-15T06:25:24;26.37;;;13.77;;
20397;SDS011;10358;49.590;11.030;2023-02-15T06:27:50;27.57;;;13.77;;
20397;SDS011;10358;49.590;11.030;2023-02-15T06:30:17;27.60;;;13.30;;
20397;SDS011;10358;49.590;11.030;2023-02-15T06:32:42;24.90;;;13.30;;
20397;SDS011;10358;49.590;11.030;2023-02-15T06:35:08;28.63;;;13.93;;
20397;SDS011;10358;49.590;11.030;2023-02-15T06:37:33;26.07;;;13.43;;
20397;SDS011;10358;49.590;11.030;2023-02-15T06:40:00;29.03;;;14.17;;
20397;SDS011;10358;49.590;11.030;2023-02-15T06:42:25;28.27;;;13.87;;
20397;SDS011;10358;49.590;11.030;2023-02-15T06:44:51;30.17;;;13.57;;
20397;SDS011;10358;49.590;11.030;2023-02-15T06:47:16;26.77;;;14.23;;
20397;SDS011;10358;49.590;11.030;2023-02-15T06:49:42;30.20;;;14.47;;
20397;SDS011;10358;49.590;11.030;2023-02-15T06:52:07;31.37;;;14.57;;
20397;SDS011;10358;49.590;11.030;2023-02-15T06:54:33;31.27;;;15.13;;
20397;SDS011;10358;49.590;11.030;2023-02-15T06:56:58;31.67;;;15.00;;
20397;SDS011;10358;49.590;11.030;2023-02-15T06:59:24;30.53;;;15.33;;
20397;SDS011;10358;49.590;11.030;2023-02-15T07:01:49;32.63;;;14.93;;
20397;SDS011;10358;49.590;11.030;2023-02-15T07:04:15;30.90;;;14.60;;
20397;SDS011;10358;49.590;11.030;2023-02-15T07:06:41;33.07;;;14.93;;
20397;SDS011;10358;49.590;11.030;2023-02-15T07:09:06;31.90;;;15.23;;
20397;SDS011;10358;49.590;11.030;2023-02-15T07:11:32;30.07;;;14.50;;
20397;SDS011;10358;49.590;11.030;2023-02-15T07:14:16;33.70;;;15.67;;
20397;SDS011;10358;49.590;11.030;2023-02-15T07:16:42;31.50;;;15.53;;
20397;SDS011;10358;49.590;11.030;2023-02-15T07:19:07;33.30;;;16.20;;
20397;SDS011;10358;49.590;11.030;2023-02-15T07:21:34;35.53;;;15.50;;
20397;SDS011;10358;49.590;11.030;2023-02-15T07:24:00;35.20;;;15.93;;
20397;SDS011;10358;49.590;11.030;2023-02-15T07:26:26;33.47;;;15.43;;
20397;SDS011;10358;49.590;11.030;2023-02-15T07:28:52;31.17;;;15.60;;
20397;SDS011;10358;49.590;11.030;2023-02-15T07:31:17;36.80;;;16.37;;
20397;SDS011;10358;49.590;11.030;2023-02-15T07:33:43;33.73;;;16.97;;
20397;SDS011;10358;49.590;11.030;2023-02-15T07:36:09;32.87;;;16.10;;
20397;SDS011;10358;49.590;11.030;2023-02-15T07:38:37;36.37;;;16.63;;
20397;SDS011;10358;49.590;11.030;2023-02-15T07:41:06;39.20;;;18.17;;
20397;SDS011;10358;49.590;11.030;2023-02-15T07:43:34;35.87;;;16.83;;
20397;SDS011;10358;49.590;11.030;2023-02-15T07:46:01;34.00;;;16.77;;
20397;SDS011;10358;49.590;11.030;2023-02-15T07:48:29;32.00;;;15.97;;
20397;SDS011;10358;49.590;11.030;2023-02-15T07:50:58;37.30;;;16.63;;
20397;SDS011;10358;49.590;11.030;2023-02-15T07:53:24;35.03;;;15.17;;
20397;SDS011;10358;49.590;11.030;2023-02-15T07:55:50;36.37;;;17.10;;
20397;SDS011;10358;49.590;11.030;2023-02-15T07:58:17;34.23;;;15.77;;
20397;SDS011;10358;49.590;11.030;2023-02-15T08:00:43;34.70;;;16.57;;
20397;SDS011;10358;49.590;11.030;2023-02-15T08:03:26;29.10;;;15.43;;
20397;SDS011;10358;49.590;11.030;2023-02-15T08:05:57;31.27;;;15.77;;
20397;SDS011;10358;49.590;11.030;2023-02-15T08:08:23;29.90;;;15.33;;
20397;SDS011;10358;49.590;11.030;2023-02-15T08:13:47;33.13;;;15.67;;
20397;SDS011;10358;49.590;11.030;2023-02-15T08:16:27;32.17;;;16.00;;
20397;SDS011;10358;49.590;11.030;2023-02-15T08:18:54;31.23;;;15.77;;
20397;SDS011;10358;49.590;11.030;2023-02-15T08:21:21;31.93;;;15.30;;
20397;SDS011;10358;49.590;11.030;2023-02-15T08:23:47;29.43;;;14.73;;
20397;SDS011;10358;49.590;11.030;2023-02-15T08:26:13;33.67;;;16.03;;
20397;SDS011;10358;49.590;11.030;2023-02-15T08:28:40;29.77;;;15.30;;
20397;SDS011;10358;49.590;11.030;2023-02-15T08:31:09;28.27;;;15.03;;
20397;SDS011;10358;49.590;11.030;2023-02-15T08:33:37;32.60;;;16.60;;
20397;SDS011;10358;49.590;11.030;2023-02-15T08:36:04;29.60;;;15.77;;
20397;SDS011;10358;49.590;11.030;2023-02-15T08:38:35;30.10;;;16.00;;
20397;SDS011;10358;49.590;11.030;2023-02-15T08:43:46;28.63;;;16.23;;
20397;SDS011;10358;49.590;11.030;2023-02-15T08:46:14;31.67;;;16.57;;
20397;SDS011;10358;49.590;11.030;2023-02-15T08:48:40;28.27;;;14.63;;
20397;SDS011;10358;49.590;11.030;2023-02-15T08:51:17;30.67;;;15.20;;
20397;SDS011;10358;49.590;11.030;2023-02-15T08:53:45;30.17;;;15.20;;
20397;SDS011;10358;49.590;11.030;2023-02-15T08:56:14;28.63;;;15.33;;
20397;SDS011;10358;49.590;11.030;2023-02-15T08:58:40;32.07;;;15.60;;
20397;SDS011;10358;49.590;11.030;2023-02-15T09:01:12;28.47;;;15.50;;
20397;SDS011;10358;49.590;11.030;2023-02-15T09:03:39;26.57;;;14.23;;
20397;SDS011;10358;49.590;11.030;2023-02-15T09:06:05;29.10;;;14.60;;
20397;SDS011;10358;49.590;11.030;2023-02-15T09:08:31;30.80;;;14.90;;
20397;SDS011;10358;49.590;11.030;2023-02-15T09:11:07;26.70;;;15.03;;
20397;SDS011;10358;49.590;11.030;2023-02-15T09:13:34;30.73;;;16.10;;
20397;SDS011;10358;49.590;11.030;2023-02-15T09:16:04;28.23;;;14.63;;
20397;SDS011;10358;49.590;11.030;2023-02-15T09:18:33;31.47;;;15.60;;
20397;SDS011;10358;49.590;11.030;2023-02-15T09:21:05;30.17;;;15.40;;
20397;SDS011;10358;49.590;11.030;2023-02-15T09:23:35;29.30;;;15.57;;
20397;SDS011;10358;49.590;11.030;2023-02-15T09:26:05;27.13;;;14.27;;
20397;SDS011;10358;49.590;11.030;2023-02-15T09:28:32;27.57;;;13.80;;
20397;SDS011;10358;49.590;11.030;2023-02-15T09:31:04;30.00;;;14.30;;
20397;SDS011;10358;49.590;11.030;2023-02-15T09:33:44;28.40;;;14.27;;
20397;SDS011;10358;49.590;11.030;2023-02-15T09:39:08;29.33;;;14.53;;
20397;SDS011;10358;49.590;11.030;2023-02-15T09:58:13;24.53;;;13.70;;
20397;SDS011;10358;49.590;11.030;2023-02-15T10:01:05;27.73;;;13.80;;
20397;SDS011;10358;49.590;11.030;2023-02-15T10:06:32;27.83;;;14.40;;
20397;SDS011;10358;49.590;11.030;2023-02-15T10:20:23;23.17;;;12.13;;
20397;SDS011;10358;49.590;11.030;2023-02-15T10:27:48;22.57;;;11.70;;
20397;SDS011;10358;49.590;11.030;2023-02-15T10:30:15;23.03;;;11.97;;
20397;SDS011;10358;49.590;11.030;2023-02-15T10:35:29;23.27;;;11.53;;
20397;SDS011;10358;49.590;11.030;2023-02-15T10:44:05;21.40;;;10.30;;
20397;SDS011;10358;49.590;11.030;2023-02-15T10:47:06;18.40;;;10.63;;
20397;SDS011;10358;49.590;11.030;2023-02-15T10:57:46;19.47;;;10.70;;
20397;SDS011;10358;49.590;11.030;2023-02-15T11:00:28;16.87;;;9.80;;
20397;SDS011;10358;49.590;11.030;2023-02-15T11:08:07;18.27;;;10.47;;
20397;SDS011;10358;49.590;11.030;2023-02-15T11:10:35;18.17;;;9.43;;
20397;SDS011;10358;49.590;11.030;2023-02-15T11:13:05;16.50;;;9.30;;
20397;SDS011;10358;49.590;11.030;2023-02-15T11:15:37;16.23;;;9.20;;
20397;SDS011;10358;49.590;11.030;2023-02-15T11:18:13;16.80;;;9.23;;
20397;SDS011;10358;49.590;11.030;2023-02-15T11:20:45;17.80;;;8.53;;
20397;SDS011;10358;49.590;11.030;2023-02-15T11:23:19;15.83;;;8.87;;
20397;SDS011;10358;49.590;11.030;2023-02-15T11:25:46;16.90;;;8.73;;
20397;SDS011;10358;49.590;11.030;2023-02-15T11:28:22;14.40;;;8.37;;
20397;SDS011;10358;49.590;11.030;2023-02-15T11:30:55;16.80;;;9.37;;
20397;SDS011;10358;49.590;11.030;2023-02-15T11:33:23;14.50;;;8.47;;
20397;SDS011;10358;49.590;11.030;2023-02-15T11:35:56;18.43;;;9.47;;
20397;SDS011;10358;49.590;11.030;2023-02-15T11:38:26;18.37;;;10.20;;
20397;SDS011;10358;49.590;11.030;2023-02-15T11:40:57;18.73;;;10.43;;
20397;SDS011;10358;49.590;11.030;2023-02-15T11:43:35;18.20;;;10.50;;
20397;SDS011;10358;49.590;11.030;2023-02-15T11:46:08;17.80;;;10.03;;
20397;SDS011;10358;49.590;11.030;2023-02-15T11:48:37;21.33;;;10.17;;
20397;SDS011;10358;49.590;11.030;2023-02-15T11:51:03;20.63;;;10.03;;
20397;SDS011;10358;49.590;11.030;2023-02-15T11:53:31;20.03;;;9.90;;
20397;SDS011;10358;49.590;11.030;2023-02-15T11:55:59;21.20;;;10.47;;
20397;SDS011;10358;49.590;11.030;2023-02-15T12:00:56;22.93;;;10.83;;
20397;SDS011;10358;49.590;11.030;2023-02-15T12:06:12;20.10;;;10.13;;
20397;SDS011;10358;49.590;11.030;2023-02-15T12:08:58;27.07;;;11.60;;
20397;SDS011;10358;49.590;11.030;2023-02-15T12:11:33;20.30;;;10.30;;
20397;SDS011;10358;49.590;11.030;2023-02-15T12:14:05;23.50;;;11.17;;
20397;SDS011;10358;49.590;11.030;2023-02-15T12:16:42;21.40;;;11.33;;
20397;SDS011;10358;49.590;11.030;2023-02-15T12:19:30;19.33;;;10.37;;
20397;SDS011;10358;49.590;11.030;2023-02-15T12:22:05;19.60;;;10.57;;
20397;SDS011;10358;49.590;11.030;2023-02-15T12:24:37;23.27;;;11.07;;
20397;SDS011;10358;49.590;11.030;2023-02-15T12:29:47;18.70;;;10.67;;
20397;SDS011;10358;49.590;11.030;2023-02-15T12:32:16;18.90;;;10.43;;
20397;SDS011;10358;49.590;11.030;2023-02-15T12:34:50;23.40;;;10.33;;
20397;SDS011;10358;49.590;11.030;2023-02-15T12:37:19;19.77;;;10.30;;
20397;SDS011;10358;49.590;11.030;2023-02-15T12:39:51;23.10;;;10.87;;
20397;SDS011;10358;49.590;11.030;2023-02-15T12:42:19;20.97;;;10.60;;
20397;SDS011;10358;49.590;11.030;2023-02-15T12:44:55;17.70;;;10.33;;
20397;SDS011;10358;49.590;11.030;2023-02-15T12:47:21;18.57;;;10.73;;
20397;SDS011;10358;49.590;11.030;2023-02-15T12:50:05;22.83;;;11.37;;
20397;SDS011;10358;49.590;11.030;2023-02-15T12:52:41;22.17;;;11.57;;
20397;SDS011;10358;49.590;11.030;2023-02-15T12:55:27;21.17;;;11.47;;
20397;SDS011;10358;49.590;11.030;2023-02-15T12:58:05;20.53;;;11.97;;
20397;SDS011;10358;49.590;11.030;2023-02-15T13:00:32;25.47;;;12.00;;
20397;SDS011;10358;49.590;11.030;2023-02-15T13:02:59;21.57;;;11.83;;
20397;SDS011;10358;49.590;11.030;2023-02-15T13:05:34;21.07;;;12.03;;
20397;SDS011;10358;49.590;11.030;2023-02-15T13:08:04;21.50;;;12.60;;
20397;SDS011;10358;49.590;11.030;2023-02-15T13:10:39;22.80;;;12.70;;
20397;SDS011;10358;49.590;11.030;2023-02-15T13:13:11;25.87;;;12.60;;
20397;SDS011;10358;49.590;11.030;2023-02-15T13:15:43;22.00;;;12.37;;
20397;SDS011;10358;49.590;11.030;2023-02-15T13:18:15;21.73;;;12.33;;
20397;SDS011;10358;49.590;11.030;2023-02-15T13:20:44;23.70;;;12.57;;
20397;SDS011;10358;49.590;11.030;2023-02-15T13:23:21;21.90;;;12.17;;
20397;SDS011;10358;49.590;11.030;2023-02-15T13:25:52;26.60;;;13.07;;
20397;SDS011;10358;49.590;11.030;2023-02-15T13:28:24;23.00;;;12.63;;
20397;SDS011;10358;49.590;11.030;2023-02-15T13:30:56;25.17;;;13.80;;
20397;SDS011;10358;49.590;11.030;2023-02-15T13:33:26;26.77;;;13.00;;
20397;SDS011;10358;49.590;11.030;2023-02-15T13:38:44;26.50;;;13.30;;
20397;SDS011;10358;49.590;11.030;2023-02-15T13:44:21;27.57;;;13.70;;
20397;SDS011;10358;49.590;11.030;2023-02-15T13:50:00;26.53;;;14.63;;
20397;SDS011;10358;49.590;11.030;2023-02-15T13:52:47;28.17;;;14.60;;
20397;SDS011;10358;49.590;11.030;2023-02-15T13:55:36;25.97;;;13.97;;
20397;SDS011;10358;49.590;11.030;2023-02-15T14:06:44;28.43;;;14.53;;
20397;SDS011;10358;49.590;11.030;2023-02-15T14:20:39;27.13;;;14.90;;
20397;SDS011;10358;49.590;11.030;2023-02-15T14:23:32;25.77;;;14.43;;
20397;SDS011;10358;49.590;11.030;2023-02-15T14:26:06;26.37;;;14.93;;
20397;SDS011;10358;49.590;11.030;2023-02-15T14:29:23;27.10;;;14.67;;
20397;SDS011;10358;49.590;11.030;2023-02-15T14:32:01;26.37;;;15.00;;
20397;SDS011;10358;49.590;11.030;2023-02-15T14:34:42;27.17;;;14.97;;
20397;SDS011;10358;49.590;11.030;2023-02-15T14:37:13;31.00;;;15.30;;
20397;SDS011;10358;49.590;11.030;2023-02-15T14:42:57;29.43;;;15.27;;
20397;SDS011;10358;49.590;11.030;2023-02-15T14:45:41;28.50;;;16.67;;
20397;SDS011;10358;49.590;11.030;2023-02-15T14:48:29;31.53;;;16.60;;
20397;SDS011;10358;49.590;11.030;2023-02-15T14:50:58;29.47;;;16.60;;
20397;SDS011;10358;49.590;11.030;2023-02-15T14:56:14;30.87;;;16.80;;
20397;SDS011;10358;49.590;11.030;2023-02-15T15:01:14;28.37;;;16.60;;
20397;SDS011;10358;49.590;11.030;2023-02-15T15:03:49;28.97;;;16.20;;
20397;SDS011;10358;49.590;11.030;2023-02-15T15:08:53;30.17;;;17.60;;
20397;SDS011;10358;49.590;11.030;2023-02-15T15:13:55;30.40;;;17.60;;
20397;SDS011;10358;49.590;11.030;2023-02-15T15:16:24;30.20;;;16.30;;
20397;SDS011;10358;49.590;11.030;2023-02-15T15:18:55;31.77;;;17.30;;
20397;SDS011;10358;49.590;11.030;2023-02-15T15:41:17;32.13;;;17.93;;
20397;SDS011;10358;49.590;11.030;2023-02-15T15:49:28;28.87;;;17.00;;
20397;SDS011;10358;49.590;11.030;2023-02-15T15:51:59;30.60;;;17.30;;
20397;SDS011;10358;49.590;11.030;2023-02-15T15:54:33;32.60;;;18.70;;
20397;SDS011;10358;49.590;11.030;2023-02-15T15:57:03;34.70;;;17.97;;
20397;SDS011;10358;49.590;11.030;2023-02-15T15:59:32;32.30;;;17.87;;
20397;SDS011;10358;49.590;11.030;2023-02-15T16:02:06;36.03;;;17.90;;
20397;SDS011;10358;49.590;11.030;2023-02-15T16:04:36;36.37;;;17.53;;
20397;SDS011;10358;49.590;11.030;2023-02-15T16:07:24;38.70;;;18.03;;
20397;SDS011;10358;49.590;11.030;2023-02-15T16:12:29;30.90;;;17.80;;
20397;SDS011;10358;49.590;11.030;2023-02-15T16:14:56;36.63;;;18.87;;
20397;SDS011;10358;49.590;11.030;2023-02-15T16:17:27;34.97;;;18.63;;
20397;SDS011;10358;49.590;11.030;2023-02-15T16:20:06;35.33;;;19.17;;
20397;SDS011;10358;49.590;11.030;2023-02-15T16:22:43;32.17;;;17.43;;
20397;SDS011;10358;49.590;11.030;2023-02-15T16:25:29;30.53;;;17.37;;
20397;SDS011;10358;49.590;11.030;2023-02-15T16:28:20;35.93;;;18.23;;
20397;SDS011;10358;49.590;11.030;2023-02-15T16:30:54;39.60;;;18.47;;
20397;SDS011;10358;49.590;11.030;2023-02-15T16:33:35;32.10;;;18.23;;
20397;SDS011;10358;49.590;11.030;2023-02-15T16:36:05;37.97;;;18.60;;
20397;SDS011;10358;49.590;11.030;2023-02-15T16:41:12;34.43;;;18.83;;
20397;SDS011;10358;49.590;11.030;2023-02-15T16:43:40;40.07;;;21.67;;
20397;SDS011;10358;49.590;11.030;2023-02-15T16:46:15;39.23;;;20.27;;
20397;SDS011;10358;49.590;11.030;2023-02-15T16:48:45;41.53;;;19.30;;
20397;SDS011;10358;49.590;11.030;2023-02-15T16:51:26;37.13;;;18.43;;
20397;SDS011;10358;49.590;11.030;2023-02-15T16:53:54;35.27;;;18.33;;
20397;SDS011;10358;49.590;11.030;2023-02-15T16:56:24;35.97;;;18.67;;
20397;SDS011;10358;49.590;11.030;2023-02-15T16:58:52;36.83;;;18.20;;
20397;SDS011;10358;49.590;11.030;2023-02-15T17:01:20;38.43;;;19.60;;
20397;SDS011;10358;49.590;11.030;2023-02-15T17:03:49;37.07;;;19.10;;
20397;SDS011;10358;49.590;11.030;2023-02-15T17:06:22;34.80;;;19.13;;
20397;SDS011;10358;49.590;11.030;2023-02-15T17:08:51;34.90;;;17.60;;
20397;SDS011;10358;49.590;11.030;2023-02-15T17:11:34;39.87;;;18.80;;
20397;SDS011;10358;49.590;11.030;2023-02-15T17:16:36;33.93;;;16.80;;
20397;SDS011;10358;49.590;11.030;2023-02-15T17:19:13;35.37;;;17.53;;
20397;SDS011;10358;49.590;11.030;2023-02-15T17:21:49;38.60;;;18.70;;
20397;SDS011;10358;49.590;11.030;2023-02-15T17:24:35;41.67;;;18.00;;
20397;SDS011;10358;49.590;11.030;2023-02-15T17:27:17;37.67;;;17.87;;